London Stansted Airport

Airport
ICAO code: 
EGSS
IATA Code: 
STN
Summary
ICAO Region: 
EUR
Territory: 
Location: 
Stansted, England, United Kingdom, Essex
Serving: 
London
Elevation: 
348 ft
Coordinates: 
Aerial View: 
51° 53' 21.768" N, 0° 15' 41.472" E
Metar
Observation
EGSS 190020Z AUTO 18005KT 2300 BR BKN002 OVC014 04/03 Q1031
Station
Stansted Airport
Date/Time
2022-01-19 00:20:00
Wind direction
180°
Wind speed
05 kts
Lowest cloud amount
broken clouds
Temperature
4°C
Dew point
3°C
Humidity
93%
QNH
1031 hPa
Weather condition
n/a

London Stansted Airport is an international airport located at Stansted Mountfitchet in the district of Uttlesford in Essex, 42nm northeast of Central London.

Climatology

Temperate Marine climate/Oceanic climate (Köppen climate classification Cfb).

Runways

Designator Length Width Surface Rops
5/23 3048 46 ASP Yes/Yes

SKYbrary Partners:

Safety knowledge contributed by: